Time;durP1;ratioP1;P1;durP2;ratioP2;P2;SDS_P1;SDS_P2;PMS_P1;PMS_P2;Temp;Humidity;BMP_temperature;BMP_pressure;BME280_temperature;BME280_humidity;BME280_pressure;Samples;Min_cycle;Max_cycle;Signal;HPM_P1;HPM_P2
2022/10/10 00:02:05;;;;;;;6.50;5.32;;;;;;;12.29;73.54;98406.03;7369053;19;20082;-71
2022/10/10 00:04:31;;;;;;;7.65;5.15;;;;;;;12.30;73.87;98400.56;7372072;19;20035;-71
2022/10/10 00:06:58;;;;;;;7.25;5.25;;;;;;;12.35;73.40;98388.63;7366233;19;20435;-73
2022/10/10 00:09:25;;;;;;;8.65;5.63;;;;;;;12.38;73.44;98391.78;7366601;19;20031;-71
2022/10/10 00:11:51;;;;;;;7.28;5.10;;;;;;;12.41;73.46;98406.53;7370059;19;20379;-70
2022/10/10 00:14:18;;;;;;;8.80;5.30;;;;;;;12.33;73.74;98401.25;7371065;19;20104;-71
2022/10/10 00:16:45;;;;;;;7.22;5.15;;;;;;;12.36;73.57;98388.47;7370315;19;20053;-70
2022/10/10 00:19:11;;;;;;;8.65;6.05;;;;;;;12.34;73.57;98401.06;7371447;19;20014;-71
2022/10/10 00:21:38;;;;;;;8.90;5.50;;;;;;;12.37;73.66;98394.59;7369157;19;20076;-73
2022/10/10 00:24:05;;;;;;;10.45;5.53;;;;;;;12.44;73.62;98384.97;7367402;19;20707;-73
2022/10/10 00:26:32;;;;;;;7.45;5.57;;;;;;;12.45;73.64;98395.44;7369953;19;21260;-70
2022/10/10 00:28:59;;;;;;;6.68;5.55;;;;;;;12.50;73.36;98389.59;7369305;19;20026;-73
2022/10/10 00:31:26;;;;;;;11.15;5.47;;;;;;;12.58;73.41;98391.44;7370043;19;20011;-70
2022/10/10 00:33:53;;;;;;;9.10;5.38;;;;;;;12.58;73.18;98384.28;7367120;19;20010;-73
2022/10/10 00:36:20;;;;;;;9.75;6.53;;;;;;;12.58;73.39;98386.94;7369437;19;20052;-71
2022/10/10 00:38:47;;;;;;;9.82;5.68;;;;;;;12.60;73.32;98373.53;7365825;19;20052;-71
2022/10/10 00:41:13;;;;;;;11.65;5.80;;;;;;;12.64;73.29;98385.47;7359903;19;20019;-71
2022/10/10 00:43:40;;;;;;;8.32;5.18;;;;;;;12.63;73.43;98381.13;7367807;19;20078;-70
2022/10/10 00:46:07;;;;;;;13.35;5.45;;;;;;;12.63;73.45;98381.13;7368813;19;20022;-71
2022/10/10 00:48:37;;;;;;;10.30;6.07;;;;;;;12.67;73.33;98380.63;7367780;19;20489;-73
2022/10/10 00:51:10;;;;;;;9.73;5.90;;;;;;;12.69;73.47;98376.00;7364354;19;20010;-71
2022/10/10 00:53:41;;;;;;;9.70;6.22;;;;;;;12.70;73.12;98376.81;7362326;19;20134;-71
2022/10/10 00:56:08;;;;;;;9.45;5.20;;;;;;;12.71;73.33;98373.16;7365434;19;21254;-72
2022/10/10 00:58:36;;;;;;;10.30;6.15;;;;;;;12.65;73.43;98376.50;7332212;19;21332;-70
2022/10/10 01:01:02;;;;;;;15.27;6.47;;;;;;;12.70;73.32;98375.00;7325783;19;20019;-71
2022/10/10 01:03:29;;;;;;;7.78;6.28;;;;;;;12.76;73.20;98362.03;7327681;19;20010;-74
2022/10/10 01:05:56;;;;;;;11.10;5.93;;;;;;;12.78;73.24;98363.53;7329592;19;20010;-70
2022/10/10 01:08:22;;;;;;;7.90;6.38;;;;;;;12.80;73.21;98371.34;7329177;19;20089;-69
2022/10/10 01:11:07;;;;;;;7.40;5.80;;;;;;;12.82;72.98;98364.84;7330935;19;20757;-72
2022/10/10 01:13:53;;;;;;;5.80;5.20;;;;;;;12.85;72.91;98364.50;7326989;19;20030;-74
2022/10/10 01:16:28;;;;;;;10.23;6.28;;;;;;;12.88;72.89;98361.50;7329297;19;20522;-70
2022/10/10 01:19:04;;;;;;;9.05;6.10;;;;;;;12.92;72.86;98359.31;7325132;19;20026;-71
2022/10/10 01:22:15;;;;;;;10.63;6.00;;;;;;;12.93;72.67;98358.34;7330164;19;22709;-70
2022/10/10 01:24:54;;;;;;;10.07;5.88;;;;;;;12.80;73.03;98363.38;7328567;19;20458;-72
2022/10/10 01:27:51;;;;;;;7.28;6.15;;;;;;;12.80;73.05;98358.06;7338234;19;20897;-71
2022/10/10 01:30:23;;;;;;;8.43;6.03;;;;;;;12.83;73.05;98358.53;7363172;19;20014;-72
2022/10/10 01:32:53;;;;;;;11.30;6.43;;;;;;;12.88;73.24;98350.88;7361735;19;20078;-70
2022/10/10 01:35:49;;;;;;;9.23;6.43;;;;;;;12.86;73.27;98354.72;7361218;19;20086;-72
2022/10/10 01:38:35;;;;;;;9.02;5.75;;;;;;;12.89;73.27;98354.38;7362562;19;20869;-70
2022/10/10 01:41:10;;;;;;;12.20;7.28;;;;;;;12.92;73.07;98351.38;7366061;19;20930;-72
2022/10/10 01:43:36;;;;;;;10.57;6.25;;;;;;;12.98;73.05;98349.84;7368318;19;20027;-71
2022/10/10 01:46:11;;;;;;;8.23;6.30;;;;;;;13.00;72.81;98343.38;7365306;19;20431;-71
2022/10/10 01:48:38;;;;;;;17.02;6.43;;;;;;;13.00;72.92;98338.06;7361837;19;20052;-71
2022/10/10 01:51:26;;;;;;;8.25;5.57;;;;;;;12.97;73.10;98346.38;7366034;19;20018;-70
2022/10/10 01:54:06;;;;;;;10.20;6.18;;;;;;;13.01;72.88;98347.69;7367450;19;22428;-70
2022/10/10 01:56:54;;;;;;;7.65;6.55;;;;;;;13.04;72.70;98352.66;7363412;19;20022;-70
2022/10/10 01:59:58;;;;;;;12.43;6.32;;;;;;;13.04;72.71;98343.88;7365663;19;20074;-71
2022/10/10 02:02:43;;;;;;;10.60;6.55;;;;;;;13.04;72.65;98338.56;7364101;19;20031;-71
2022/10/10 02:05:16;;;;;;;10.88;6.30;;;;;;;13.02;72.75;98337.91;7361274;19;20022;-72
2022/10/10 02:08:05;;;;;;;14.57;6.60;;;;;;;13.05;72.71;98338.38;7361770;19;20014;-71
2022/10/10 02:10:34;;;;;;;8.27;6.45;;;;;;;13.05;72.79;98340.19;7364231;19;20029;-71
2022/10/10 02:13:02;;;;;;;10.80;6.50;;;;;;;13.05;72.66;98329.56;7362974;19;20057;-71
2022/10/10 02:15:34;;;;;;;7.45;6.40;;;;;;;13.03;72.73;98335.06;7361438;19;20718;-71
2022/10/10 02:18:01;;;;;;;8.02;5.80;;;;;;;12.98;72.78;98339.22;7362821;19;20007;-72
2022/10/10 02:20:30;;;;;;;9.95;7.28;;;;;;;13.02;72.89;98338.72;7361009;19;20642;-71
2022/10/10 02:22:58;;;;;;;10.95;6.88;;;;;;;13.01;72.79;98339.72;7359990;19;20019;-71
2022/10/10 02:25:27;;;;;;;9.90;6.53;;;;;;;12.96;72.88;98332.28;7363776;19;20042;-70
2022/10/10 02:28:15;;;;;;;12.38;6.05;;;;;;;12.98;72.71;98340.06;7361521;19;20014;-73
2022/10/10 02:30:44;;;;;;;12.02;6.43;;;;;;;12.95;72.59;98337.75;7363935;19;20021;-71
2022/10/10 02:33:15;;;;;;;7.85;5.97;;;;;;;12.90;72.96;98340.06;7361979;19;20022;-71
2022/10/10 02:35:43;;;;;;;9.70;6.57;;;;;;;12.86;73.10;98341.44;7358413;19;20023;-71
2022/10/10 02:38:12;;;;;;;11.27;6.78;;;;;;;12.83;73.08;98347.09;7361698;19;20019;-71
2022/10/10 02:40:39;;;;;;;12.32;6.28;;;;;;;12.84;73.09;98348.75;7362714;19;20018;-71
2022/10/10 02:43:06;;;;;;;10.93;6.88;;;;;;;12.84;73.00;98340.78;7357026;19;20180;-72
2022/10/10 02:45:34;;;;;;;7.70;6.38;;;;;;;12.83;72.88;98341.78;7364451;19;20015;-71
2022/10/10 02:48:00;;;;;;;10.38;6.45;;;;;;;12.81;72.95;98343.78;7364366;19;20023;-71
2022/10/10 02:50:28;;;;;;;10.93;6.70;;;;;;;12.72;73.08;98342.97;7362935;19;20049;-71
2022/10/10 02:52:55;;;;;;;7.60;5.47;;;;;;;12.73;73.13;98334.81;7361299;19;20019;-70
2022/10/10 02:55:21;;;;;;;10.05;6.18;;;;;;;12.76;72.90;98336.31;7359653;19;20010;-73
2022/10/10 02:57:48;;;;;;;10.75;6.07;;;;;;;12.77;73.25;98335.34;7361721;19;20015;-73
2022/10/10 03:00:16;;;;;;;8.13;6.80;;;;;;;12.78;72.95;98339.63;7363884;19;20006;-70
2022/10/10 03:02:42;;;;;;;8.80;5.75;;;;;;;12.79;73.07;98330.66;7361408;19;20026;-71
2022/10/10 03:05:09;;;;;;;8.50;6.97;;;;;;;12.78;73.13;98330.84;7368350;19;20018;-70
2022/10/10 03:07:36;;;;;;;9.90;6.70;;;;;;;12.72;73.23;98333.19;7371312;19;20018;-72
2022/10/10 03:10:04;;;;;;;13.02;6.18;;;;;;;12.72;73.12;98330.53;7369259;19;20029;-71
2022/10/10 03:12:32;;;;;;;10.43;6.88;;;;;;;12.68;73.13;98331.03;7364786;19;20074;-71
2022/10/10 03:14:59;;;;;;;10.38;6.00;;;;;;;12.68;73.18;98337.16;7370875;19;20747;-70
2022/10/10 03:17:26;;;;;;;7.03;5.93;;;;;;;12.65;73.07;98339.34;7368563;19;20056;-71
2022/10/10 03:19:53;;;;;;;10.38;6.63;;;;;;;12.59;73.09;98340.03;7371666;19;20014;-71
2022/10/10 03:22:20;;;;;;;9.02;6.63;;;;;;;12.51;73.37;98347.00;7369606;19;20014;-71
2022/10/10 03:24:47;;;;;;;10.57;6.30;;;;;;;12.51;73.48;98348.81;7367614;19;20043;-70
2022/10/10 03:27:14;;;;;;;12.00;6.88;;;;;;;12.32;73.73;98344.69;7364773;19;20021;-71
2022/10/10 03:29:40;;;;;;;10.07;6.05;;;;;;;12.33;73.92;98346.38;7365532;19;20018;-71
2022/10/10 03:32:07;;;;;;;9.13;6.20;;;;;;;12.34;73.85;98336.56;7366286;19;20025;-70
2022/10/10 03:34:36;;;;;;;9.43;6.28;;;;;;;12.33;73.96;98340.22;7371171;19;20052;-70
2022/10/10 03:37:03;;;;;;;9.18;5.95;;;;;;;12.31;74.24;98343.03;7367793;19;20020;-72
2022/10/10 03:39:30;;;;;;;9.93;6.38;;;;;;;12.26;74.04;98346.19;7368128;19;20022;-69
2022/10/10 03:41:57;;;;;;;10.68;6.68;;;;;;;12.20;74.35;98338.09;7367759;19;20364;-73
2022/10/10 03:44:23;;;;;;;10.43;6.28;;;;;;;12.17;74.51;98336.59;7365137;19;20040;-72
2022/10/10 03:46:50;;;;;;;12.90;6.30;;;;;;;12.14;74.49;98342.22;7367532;19;20022;-70
2022/10/10 03:49:17;;;;;;;10.10;6.28;;;;;;;12.06;74.47;98328.97;7366666;19;20011;-70
2022/10/10 03:51:43;;;;;;;10.77;6.78;;;;;;;12.05;74.75;98332.59;7367649;19;20006;-72
2022/10/10 03:54:10;;;;;;;11.93;6.97;;;;;;;12.04;74.85;98330.97;7368878;19;20022;-71
2022/10/10 03:56:37;;;;;;;11.43;6.93;;;;;;;12.03;75.18;98327.50;7364900;19;20109;-70
2022/10/10 03:59:05;;;;;;;8.85;7.28;;;;;;;12.04;75.14;98331.78;7365697;19;20054;-73
2022/10/10 04:01:32;;;;;;;12.98;6.95;;;;;;;12.05;75.21;98329.97;7367809;19;20007;-71
2022/10/10 04:03:59;;;;;;;12.85;8.00;;;;;;;12.09;75.10;98333.94;7367240;19;20365;-71
2022/10/10 04:06:27;;;;;;;9.35;7.40;;;;;;;12.06;75.05;98328.97;7367704;19;20015;-71
2022/10/10 04:08:53;;;;;;;10.35;7.32;;;;;;;12.08;75.13;98333.13;7370236;19;20018;-70
2022/10/10 04:11:20;;;;;;;11.73;7.13;;;;;;;12.09;75.27;98331.28;7365274;19;20444;-71
2022/10/10 04:13:47;;;;;;;13.63;7.97;;;;;;;12.05;75.23;98327.31;7369788;19;20039;-72
2022/10/10 04:16:13;;;;;;;11.05;7.60;;;;;;;12.10;75.16;98326.81;7358556;19;20014;-70
2022/10/10 04:18:40;;;;;;;8.00;7.00;;;;;;;12.07;75.22;98320.84;7366163;19;20010;-70
2022/10/10 04:21:08;;;;;;;8.15;7.22;;;;;;;12.14;75.29;98330.78;7366751;19;20002;-71
2022/10/10 04:23:34;;;;;;;11.50;7.53;;;;;;;12.18;75.36;98327.63;7368002;19;20018;-71
2022/10/10 04:26:01;;;;;;;11.52;7.22;;;;;;;12.17;75.50;98331.28;7369004;19;20038;-70
2022/10/10 04:28:28;;;;;;;10.75;7.90;;;;;;;12.13;75.50;98331.78;7368062;19;20027;-70
2022/10/10 04:30:55;;;;;;;11.93;7.68;;;;;;;12.17;75.40;98333.13;7368360;19;20107;-71
2022/10/10 04:33:22;;;;;;;12.23;6.93;;;;;;;12.17;75.47;98328.63;7365587;19;20937;-70
2022/10/10 04:35:49;;;;;;;12.38;7.90;;;;;;;12.14;75.39;98328.13;7362612;19;20023;-70
2022/10/10 04:38:16;;;;;;;11.60;7.07;;;;;;;12.10;75.17;98325.00;7367158;19;20026;-71
2022/10/10 04:40:43;;;;;;;12.20;8.52;;;;;;;12.07;75.21;98320.03;7373797;19;20043;-72
2022/10/10 04:43:10;;;;;;;11.68;7.50;;;;;;;11.99;75.50;98322.69;7372887;19;20423;-71
2022/10/10 04:45:36;;;;;;;12.13;7.53;;;;;;;11.98;75.52;98323.66;7378538;19;20022;-71
2022/10/10 04:48:03;;;;;;;16.08;7.65;;;;;;;11.95;75.39;98318.69;7373533;19;20018;-71
2022/10/10 04:50:30;;;;;;;13.70;9.10;;;;;;;11.95;75.33;98313.38;7373899;19;20020;-70
2022/10/10 04:52:57;;;;;;;13.93;7.60;;;;;;;11.97;75.38;98324.66;7370155;19;20109;-71
2022/10/10 04:55:23;;;;;;;11.93;7.72;;;;;;;12.00;75.47;98319.84;7371806;19;20018;-71
2022/10/10 04:57:57;;;;;;;12.60;8.75;;;;;;;11.99;75.65;98322.69;7373359;19;20014;-70
2022/10/10 05:00:23;;;;;;;10.35;7.95;;;;;;;12.00;75.43;98319.03;7372294;19;20026;-72
2022/10/10 05:02:50;;;;;;;17.15;8.25;;;;;;;11.98;75.46;98326.31;7376322;19;20014;-71
2022/10/10 05:05:18;;;;;;;10.90;7.93;;;;;;;11.96;75.68;98318.53;7373775;19;20014;-73
2022/10/10 05:07:45;;;;;;;12.25;8.05;;;;;;;11.97;75.69;98324.66;7370123;19;20019;-74
2022/10/10 05:10:12;;;;;;;14.20;8.60;;;;;;;11.95;76.21;98321.34;7363567;19;20014;-75
2022/10/10 05:12:38;;;;;;;12.93;7.78;;;;;;;12.01;76.11;98323.34;7364789;19;20011;-72
2022/10/10 05:15:06;;;;;;;13.90;8.32;;;;;;;12.04;75.97;98325.66;7370379;19;20086;-72
2022/10/10 05:17:32;;;;;;;11.10;8.40;;;;;;;12.07;75.88;98333.28;7341199;19;20026;-73
2022/10/10 05:19:59;;;;;;;10.75;8.00;;;;;;;12.03;75.71;98324.00;7370377;19;20570;-72
2022/10/10 05:22:27;;;;;;;10.00;7.72;;;;;;;12.03;75.90;98324.00;7362503;19;20363;-72
2022/10/10 05:24:54;;;;;;;18.38;7.95;;;;;;;12.01;75.83;98323.34;7363102;19;20015;-71
2022/10/10 05:27:20;;;;;;;14.02;8.43;;;;;;;11.98;75.85;98316.56;7368350;19;20014;-73
2022/10/10 05:29:47;;;;;;;10.95;8.05;;;;;;;11.98;75.92;98313.91;7369860;19;20014;-72
2022/10/10 05:32:14;;;;;;;11.55;8.38;;;;;;;11.98;75.81;98315.69;7369117;19;20022;-72
2022/10/10 05:34:41;;;;;;;11.30;8.23;;;;;;;11.96;75.63;98323.00;7368913;19;20010;-72
2022/10/10 05:37:07;;;;;;;10.48;8.18;;;;;;;11.97;75.78;98319.34;7369236;19;20029;-72
2022/10/10 05:39:34;;;;;;;13.15;8.10;;;;;;;11.98;75.67;98337.75;7371953;19;20892;-72
2022/10/10 05:42:02;;;;;;;12.05;8.60;;;;;;;12.02;75.82;98333.78;7373615;19;20018;-73
2022/10/10 05:44:28;;;;;;;13.88;7.88;;;;;;;11.99;76.06;98331.44;7374157;19;20780;-72
2022/10/10 05:46:55;;;;;;;11.85;7.22;;;;;;;12.00;75.94;98341.06;7376587;19;20014;-72
2022/10/10 05:49:22;;;;;;;8.80;7.60;;;;;;;12.00;75.87;98340.22;7377551;19;20351;-71
2022/10/10 05:51:49;;;;;;;8.48;6.72;;;;;;;11.98;75.75;98342.22;7378782;19;20043;-71
2022/10/10 05:54:15;;;;;;;9.85;7.47;;;;;;;12.01;75.81;98347.22;7374736;19;20089;-72
2022/10/10 05:56:42;;;;;;;10.73;7.40;;;;;;;12.00;75.61;98337.56;7373264;19;20023;-72
2022/10/10 05:59:09;;;;;;;10.90;7.78;;;;;;;11.95;75.71;98353.97;7372804;19;20042;-71
2022/10/10 06:01:36;;;;;;;16.50;9.38;;;;;;;11.89;76.24;98356.47;7376362;19;20035;-72
2022/10/10 06:04:02;;;;;;;18.45;11.93;;;;;;;11.85;76.41;98350.66;7376696;19;20031;-71
2022/10/10 06:06:29;;;;;;;17.17;12.07;;;;;;;11.95;76.06;98361.09;7376940;19;20006;-71
2022/10/10 06:08:56;;;;;;;25.30;17.45;;;;;;;12.04;75.87;98358.31;7376828;19;21398;-72
2022/10/10 06:11:24;;;;;;;30.75;20.02;;;;;;;12.15;75.73;98353.66;7373193;19;20027;-71
2022/10/10 06:13:53;;;;;;;29.38;18.90;;;;;;;12.19;75.71;98358.47;7373342;19;20051;-71
2022/10/10 06:16:24;;;;;;;16.23;11.63;;;;;;;12.21;75.90;98358.28;7373565;19;20029;-71
2022/10/10 06:18:51;;;;;;;15.13;9.00;;;;;;;12.27;75.88;98362.97;7376006;19;20592;-71
2022/10/10 06:21:18;;;;;;;16.88;8.98;;;;;;;12.33;75.81;98356.97;7376729;19;20092;-72
2022/10/10 06:23:45;;;;;;;16.92;11.02;;;;;;;12.43;75.59;98360.28;7376810;19;20485;-73
2022/10/10 06:26:12;;;;;;;14.48;10.40;;;;;;;12.50;75.45;98357.78;7377117;19;20043;-71
2022/10/10 06:28:38;;;;;;;11.95;8.32;;;;;;;12.54;75.40;98353.78;7374343;19;20018;-71
2022/10/10 06:31:07;;;;;;;12.40;8.50;;;;;;;12.61;75.39;98360.09;7373727;19;20021;-71
2022/10/10 06:33:36;;;;;;;13.05;8.13;;;;;;;12.72;75.20;98364.22;7376805;19;20018;-73
2022/10/10 06:36:04;;;;;;;11.82;7.40;;;;;;;12.82;74.96;98371.97;7374592;19;20082;-72
2022/10/10 06:38:31;;;;;;;10.07;8.05;;;;;;;12.92;74.85;98370.78;7373857;19;20021;-73
2022/10/10 06:41:05;;;;;;;12.00;9.55;;;;;;;12.99;74.61;98368.28;7380775;19;20060;-72
2022/10/10 06:43:32;;;;;;;9.52;7.60;;;;;;;13.10;74.53;98372.38;7382710;19;20022;-72
2022/10/10 06:45:59;;;;;;;10.55;7.25;;;;;;;13.20;73.97;98380.16;7381589;19;20022;-74
2022/10/10 06:48:26;;;;;;;13.98;8.88;;;;;;;13.30;73.79;98384.28;7378549;19;20022;-71
2022/10/10 06:51:02;;;;;;;13.20;9.05;;;;;;;13.37;73.26;98387.06;7380811;19;20431;-72
2022/10/10 06:53:29;;;;;;;16.20;8.57;;;;;;;13.43;73.32;98388.22;7383688;19;20019;-71
2022/10/10 06:55:57;;;;;;;9.73;8.70;;;;;;;13.38;73.57;98394.06;7382015;19;20015;-71
2022/10/10 06:58:24;;;;;;;9.63;7.68;;;;;;;13.40;73.62;98392.03;7382528;19;20036;-72
2022/10/10 07:00:58;;;;;;;9.48;7.50;;;;;;;13.47;73.41;98397.50;7383813;19;20015;-71
2022/10/10 07:03:25;;;;;;;11.40;7.80;;;;;;;13.45;73.46;98395.00;7380716;19;20022;-73
2022/10/10 07:05:54;;;;;;;8.95;7.32;;;;;;;13.47;73.53;98392.19;7379970;19;20518;-72
2022/10/10 07:08:22;;;;;;;10.98;7.60;;;;;;;13.41;73.81;98393.72;7378803;19;20668;-72
2022/10/10 07:10:48;;;;;;;15.50;7.70;;;;;;;13.50;74.21;98391.84;7382852;19;20023;-72
2022/10/10 07:13:15;;;;;;;17.58;9.07;;;;;;;13.63;74.41;98385.97;7380302;19;20022;-71
2022/10/10 07:15:42;;;;;;;16.35;9.07;;;;;;;13.63;73.98;98386.78;7382056;19;20015;-73
2022/10/10 07:18:09;;;;;;;15.95;9.43;;;;;;;13.77;73.92;98393.16;7380898;19;20477;-72
2022/10/10 07:20:36;;;;;;;11.32;7.57;;;;;;;13.90;73.49;98393.44;7378294;19;20043;-73
2022/10/10 07:23:03;;;;;;;11.32;7.28;;;;;;;14.04;73.49;98400.66;7377752;19;20735;-73
2022/10/10 07:25:30;;;;;;;10.00;7.10;;;;;;;14.22;73.39;98394.22;7380572;19;20074;-72
2022/10/10 07:27:57;;;;;;;10.48;7.53;;;;;;;14.28;73.03;98401.47;7382273;19;20006;-72
2022/10/10 07:30:24;;;;;;;10.02;8.00;;;;;;;14.31;73.30;98402.94;7381575;19;20022;-72
2022/10/10 07:32:53;;;;;;;12.48;7.93;;;;;;;14.34;73.31;98414.06;7379552;19;20525;-72
2022/10/10 07:35:21;;;;;;;14.45;9.73;;;;;;;14.46;73.20;98417.13;7377559;19;20023;-72
2022/10/10 07:37:52;;;;;;;15.50;11.25;;;;;;;14.68;72.91;98407.47;7378077;19;20078;-72
2022/10/10 07:40:18;;;;;;;13.57;9.88;;;;;;;14.69;72.36;98407.31;7377471;19;20031;-72
2022/10/10 07:42:45;;;;;;;9.52;6.65;;;;;;;14.92;71.82;98406.41;7380321;19;20021;-72
2022/10/10 07:45:12;;;;;;;8.55;5.88;;;;;;;15.00;70.99;98406.31;7382994;19;20043;-72
2022/10/10 07:47:39;;;;;;;9.70;6.57;;;;;;;14.92;70.58;98409.06;7382468;19;20011;-73
2022/10/10 07:50:06;;;;;;;14.52;6.55;;;;;;;14.83;70.69;98416.31;7380811;19;20095;-72
2022/10/10 07:52:34;;;;;;;8.95;7.28;;;;;;;14.75;71.17;98421.72;7377387;19;20039;-73
2022/10/10 07:55:01;;;;;;;8.23;6.53;;;;;;;14.59;71.16;98422.72;7373233;19;20010;-75
2022/10/10 07:57:28;;;;;;;10.90;5.45;;;;;;;14.39;71.81;98419.66;7375460;19;20007;-72
2022/10/10 07:59:54;;;;;;;9.75;6.80;;;;;;;14.45;72.08;98420.78;7381578;19;20019;-72
2022/10/10 08:02:21;;;;;;;8.48;6.15;;;;;;;14.52;71.69;98428.91;7378923;19;20022;-73
2022/10/10 08:04:48;;;;;;;6.47;5.72;;;;;;;14.64;71.39;98424.81;7381349;19;20407;-72
2022/10/10 08:07:15;;;;;;;11.77;5.85;;;;;;;14.67;71.30;98429.78;7382151;19;20061;-71
2022/10/10 08:09:42;;;;;;;8.13;6.10;;;;;;;14.77;71.21;98427.72;7379248;19;20023;-73
2022/10/10 08:12:09;;;;;;;8.40;6.15;;;;;;;14.90;71.36;98419.06;7376482;19;20022;-72
2022/10/10 08:14:35;;;;;;;12.15;7.07;;;;;;;15.00;71.18;98424.97;7378829;19;20022;-72
2022/10/10 08:17:02;;;;;;;8.75;5.85;;;;;;;15.01;71.50;98423.13;7379224;19;20470;-73
2022/10/10 08:19:29;;;;;;;8.77;5.93;;;;;;;15.02;70.98;98422.13;7381346;19;20022;-71
2022/10/10 08:21:55;;;;;;;8.10;5.80;;;;;;;15.15;70.87;98422.31;7379798;19;20034;-71
2022/10/10 08:24:22;;;;;;;16.25;10.15;;;;;;;15.45;70.39;98424.94;7381315;19;20011;-72
2022/10/10 08:26:49;;;;;;;12.93;7.32;;;;;;;15.61;70.04;98432.75;7378001;19;20086;-72
2022/10/10 08:29:16;;;;;;;18.38;11.27;;;;;;;15.74;69.86;98427.59;7376348;19;20054;-72
2022/10/10 08:31:43;;;;;;;19.02;10.82;;;;;;;15.80;69.64;98424.19;7379768;19;20014;-72
2022/10/10 08:34:10;;;;;;;10.15;6.95;;;;;;;15.75;69.60;98426.59;7379698;19;20010;-71
2022/10/10 08:36:37;;;;;;;9.23;5.40;;;;;;;15.63;69.68;98433.38;7377890;19;20118;-73
2022/10/10 08:39:04;;;;;;;8.40;5.88;;;;;;;15.72;69.64;98420.81;7380036;19;20082;-73
2022/10/10 08:41:39;;;;;;;15.00;6.05;;;;;;;15.84;69.92;98421.97;7378168;19;20015;-72
2022/10/10 08:44:13;;;;;;;9.77;5.47;;;;;;;15.86;69.46;98425.28;7375755;19;20014;-72
2022/10/10 08:47:09;;;;;;;10.70;5.82;;;;;;;15.86;69.28;98424.47;7374083;19;20042;-72
2022/10/10 08:49:40;;;;;;;9.50;6.50;;;;;;;15.80;69.66;98421.53;7375958;19;20043;-71
2022/10/10 08:52:39;;;;;;;12.82;8.43;;;;;;;15.96;69.76;98423.13;7378401;19;20015;-75
2022/10/10 08:55:13;;;;;;;11.90;7.03;;;;;;;16.08;69.51;98412.78;7378468;19;20018;-72
2022/10/10 08:57:49;;;;;;;7.25;5.03;;;;;;;16.15;69.20;98421.69;7376033;19;20024;-71
2022/10/10 09:00:25;;;;;;;10.05;5.60;;;;;;;16.06;69.35;98422.84;7376954;19;20018;-75
2022/10/10 09:02:56;;;;;;;9.68;5.50;;;;;;;16.08;69.81;98419.97;7371550;19;20022;-71
2022/10/10 09:05:39;;;;;;;9.50;5.65;;;;;;;16.24;69.98;98423.22;7377768;19;20022;-75
2022/10/10 09:08:18;;;;;;;7.93;5.60;;;;;;;16.35;69.77;98421.03;7377439;19;20035;-72
2022/10/10 09:11:10;;;;;;;8.05;5.55;;;;;;;16.62;69.61;98414.09;7375844;19;20018;-73
2022/10/10 09:13:49;;;;;;;13.32;7.93;;;;;;;16.74;69.46;98411.72;7377631;19;20416;-72
2022/10/10 09:16:24;;;;;;;10.80;6.03;;;;;;;16.81;69.25;98420.63;7378079;19;20725;-73
2022/10/10 09:19:13;;;;;;;9.27;5.47;;;;;;;16.85;69.37;98421.88;7376678;19;20015;-72
2022/10/10 09:21:44;;;;;;;8.95;5.22;;;;;;;16.87;69.25;98427.88;7375306;19;21469;-71
2022/10/10 09:24:41;;;;;;;6.80;4.82;;;;;;;16.83;69.64;98423.94;7376681;19;20048;-72
2022/10/10 09:27:14;;;;;;;5.68;4.50;;;;;;;16.90;70.00;98430.16;7377847;19;20747;-72
2022/10/10 09:29:50;;;;;;;6.05;4.13;;;;;;;16.95;69.39;98425.03;7377370;19;20105;-73
2022/10/10 09:32:20;;;;;;;9.63;4.15;;;;;;;17.16;68.64;98434.03;7375505;19;20048;-72
2022/10/10 09:34:49;;;;;;;7.10;3.97;;;;;;;17.51;68.10;98442.88;7373248;19;20088;-74
2022/10/10 09:37:36;;;;;;;9.25;4.68;;;;;;;17.89;66.93;98434.41;7370583;19;20010;-73
2022/10/10 09:40:33;;;;;;;7.35;3.78;;;;;;;18.30;65.74;98436.97;7377361;19;20043;-74
2022/10/10 09:43:09;;;;;;;8.35;4.13;;;;;;;18.54;65.02;98437.41;7375232;19;20056;-75
2022/10/10 09:45:39;;;;;;;4.97;3.50;;;;;;;18.73;64.81;98447.31;7376956;19;20019;-72
2022/10/10 09:48:08;;;;;;;8.02;3.58;;;;;;;18.78;64.81;98446.72;7377748;19;20015;-72
2022/10/10 09:50:36;;;;;;;10.85;3.80;;;;;;;18.61;64.06;98447.06;7373806;19;20066;-73
2022/10/10 09:53:13;;;;;;;7.10;3.90;;;;;;;18.73;64.15;98441.13;7372280;19;20054;-71
2022/10/10 09:55:40;;;;;;;6.47;3.65;;;;;;;18.52;64.62;98450.19;7375565;19;20436;-71
2022/10/10 09:58:16;;;;;;;6.60;4.07;;;;;;;18.39;64.85;98451.00;7371307;19;20114;-73
2022/10/10 10:00:42;;;;;;;10.73;3.75;;;;;;;18.45;65.54;98446.66;7376859;19;20022;-70
2022/10/10 10:03:17;;;;;;;6.38;3.53;;;;;;;18.53;65.44;98438.44;7375428;19;20489;-74
2022/10/10 10:05:53;;;;;;;7.22;3.97;;;;;;;18.57;64.91;98437.81;7377553;19;20035;-72
2022/10/10 10:08:30;;;;;;;17.15;4.10;;;;;;;18.68;64.76;98447.09;7374313;19;20038;-71
2022/10/10 10:10:57;;;;;;;11.75;4.28;;;;;;;18.76;64.63;98443.41;7375528;19;20466;-73
2022/10/10 10:13:33;;;;;;;8.80;3.95;;;;;;;18.92;64.02;98447.53;7378901;19;21143;-72
2022/10/10 10:16:04;;;;;;;8.63;3.90;;;;;;;19.11;63.70;98449.34;7383170;19;20018;-75
2022/10/10 10:18:43;;;;;;;6.72;4.03;;;;;;;19.25;63.23;98445.63;7384274;19;20395;-72
2022/10/10 10:21:14;;;;;;;4.50;4.07;;;;;;;19.30;62.66;98442.31;7382136;19;20017;-71
2022/10/10 10:23:42;;;;;;;10.30;4.40;;;;;;;19.43;62.56;98442.28;7382592;19;20473;-72
2022/10/10 10:26:32;;;;;;;8.77;3.70;;;;;;;19.44;62.22;98443.09;7378888;19;20019;-72
2022/10/10 10:28:58;;;;;;;8.57;3.45;;;;;;;19.53;62.45;98434.59;7380319;19;20018;-73
2022/10/10 10:31:47;;;;;;;9.23;3.97;;;;;;;19.53;62.20;98445.31;7383460;19;20043;-73
2022/10/10 10:34:22;;;;;;;5.70;3.33;;;;;;;19.55;61.89;98437.06;7384700;19;20743;-71
2022/10/10 10:36:55;;;;;;;12.05;3.55;;;;;;;19.64;62.59;98433.13;7384582;19;20028;-72
2022/10/10 10:40:00;;;;;;;4.90;3.10;;;;;;;19.78;62.30;98433.94;7382461;19;20703;-72
2022/10/10 10:42:56;;;;;;;4.72;3.00;;;;;;;19.81;62.22;98433.50;7377869;19;20018;-72
2022/10/10 10:45:37;;;;;;;4.25;3.13;;;;;;;20.09;61.95;98441.22;7381114;19;20082;-72
2022/10/10 10:48:27;;;;;;;9.27;3.67;;;;;;;20.12;61.42;98429.22;7382437;19;20022;-72
2022/10/10 10:51:11;;;;;;;6.40;3.10;;;;;;;20.13;61.48;98431.66;7381583;19;20018;-72
2022/10/10 10:53:50;;;;;;;4.95;2.97;;;;;;;20.11;60.76;98438.28;7384483;19;20021;-71
2022/10/10 10:56:20;;;;;;;9.25;2.95;;;;;;;20.14;60.97;98433.31;7380442;19;20082;-73
2022/10/10 10:59:09;;;;;;;11.65;3.42;;;;;;;20.24;61.52;98429.34;7379633;19;20101;-72
2022/10/10 11:02:03;;;;;;;4.25;2.55;;;;;;;20.33;61.40;98431.56;7382091;19;20020;-72
2022/10/10 11:04:44;;;;;;;5.95;2.70;;;;;;;20.38;60.66;98422.84;7385065;19;21076;-72
2022/10/10 11:07:38;;;;;;;5.07;2.80;;;;;;;20.32;60.70;98421.81;7381926;19;20014;-73
2022/10/10 11:10:29;;;;;;;6.63;2.75;;;;;;;20.28;60.68;98422.50;7382294;19;20056;-73
2022/10/10 11:13:07;;;;;;;6.85;2.80;;;;;;;20.11;61.18;98423.00;7378803;19;20035;-72
2022/10/10 11:15:44;;;;;;;6.95;2.75;;;;;;;20.06;62.14;98420.13;7379417;19;20039;-72
2022/10/10 11:18:35;;;;;;;5.78;2.53;;;;;;;20.03;63.13;98411.69;7378616;19;20009;-71
2022/10/10 11:21:12;;;;;;;7.13;2.85;;;;;;;19.86;61.97;98416.75;7380317;19;20019;-72
2022/10/10 11:23:47;;;;;;;6.38;2.33;;;;;;;19.83;62.81;98407.25;7381333;19;20014;-72
2022/10/10 11:26:21;;;;;;;4.70;2.28;;;;;;;19.89;62.53;98410.94;7377771;19;20097;-72
2022/10/10 11:28:52;;;;;;;13.82;2.75;;;;;;;19.74;62.69;98412.03;7379967;19;20090;-71
2022/10/10 11:31:25;;;;;;;13.27;2.72;;;;;;;19.78;63.25;98409.75;7376540;19;20006;-72
2022/10/10 11:33:57;;;;;;;7.22;2.40;;;;;;;19.72;62.74;98408.75;7378433;19;20359;-71
2022/10/10 11:36:28;;;;;;;7.32;2.88;;;;;;;19.82;61.00;98404.78;7377931;19;20022;-72
2022/10/10 11:38:59;;;;;;;7.03;2.55;;;;;;;19.97;61.87;98399.13;7379257;19;20081;-72
2022/10/10 11:41:30;;;;;;;4.55;2.30;;;;;;;19.85;62.43;98394.47;7377512;19;20022;-72
2022/10/10 11:44:02;;;;;;;6.25;2.50;;;;;;;19.95;63.84;98397.47;7378909;19;20508;-71
2022/10/10 11:46:42;;;;;;;8.05;2.80;;;;;;;19.97;63.17;98399.94;7382844;19;20023;-73
2022/10/10 11:49:12;;;;;;;5.90;2.30;;;;;;;19.94;59.57;98405.75;7376070;19;20035;-72